createdAt,value
2022-08-17T00:00:49.208Z,20.69
2022-08-17T00:03:23.844Z,20.67
2022-08-17T00:05:56.087Z,20.65
2022-08-17T00:08:27.605Z,20.59
2022-08-17T00:10:59.464Z,20.59
2022-08-17T00:13:31.058Z,20.57
2022-08-17T00:16:02.931Z,20.56
2022-08-17T00:19:01.767Z,20.54
2022-08-17T00:21:26.612Z,20.53
2022-08-17T00:24:18.100Z,20.50
2022-08-17T00:26:50.087Z,20.47
2022-08-17T00:29:21.706Z,20.45
2022-08-17T00:31:53.973Z,20.43
2022-08-17T00:34:25.587Z,20.38
2022-08-17T00:36:59.910Z,20.33
2022-08-17T00:39:31.465Z,20.24
2022-08-17T00:42:03.401Z,20.26
2022-08-17T00:44:34.916Z,20.20
2022-08-17T00:47:06.756Z,20.17
2022-08-17T00:49:38.270Z,20.11
2022-08-17T00:52:11.732Z,20.12
2022-08-17T00:54:43.550Z,20.03
2022-08-17T00:57:15.609Z,20.04
2022-08-17T00:59:47.195Z,20.06
2022-08-17T01:02:41.409Z,20.06
2022-08-17T01:05:14.862Z,20.06
2022-08-17T01:07:46.701Z,20.06
2022-08-17T01:11:00.038Z,20.05
2022-08-17T01:13:10.720Z,20.02
2022-08-17T01:15:42.592Z,20.01
2022-08-17T01:18:18.355Z,20.01
2022-08-17T01:20:49.902Z,19.97
2022-08-17T01:23:21.825Z,19.93
2022-08-17T01:25:53.348Z,19.89
2022-08-17T01:28:40.701Z,19.87
2022-08-17T01:31:16.679Z,19.84
2022-08-17T01:33:48.584Z,19.79
2022-08-17T01:36:20.378Z,19.80
2022-08-17T01:38:51.942Z,19.77
2022-08-17T01:41:23.497Z,19.78
2022-08-17T01:43:55.091Z,19.76
2022-08-17T01:46:27.438Z,19.77
2022-08-17T01:48:59.366Z,19.77
2022-08-17T01:51:33.116Z,19.75
2022-08-17T01:54:07.737Z,19.75
2022-08-17T01:56:39.664Z,19.75
2022-08-17T01:59:11.232Z,19.75
2022-08-17T02:01:43.799Z,19.72
2022-08-17T02:04:15.400Z,19.66
2022-08-17T02:06:54.236Z,19.62
2022-08-17T02:09:29.543Z,19.60
2022-08-17T02:12:38.497Z,19.54
2022-08-17T02:14:55.814Z,19.52
2022-08-17T02:17:27.746Z,19.49
2022-08-17T02:19:59.335Z,19.39
2022-08-17T02:22:31.332Z,19.32
2022-08-17T02:25:02.947Z,19.29
2022-08-17T02:27:34.804Z,19.27
2022-08-17T02:30:06.362Z,19.26
2022-08-17T02:32:58.363Z,19.26
2022-08-17T02:35:29.894Z,19.25
2022-08-17T02:38:02.178Z,19.26
2022-08-17T02:40:36.041Z,19.27
2022-08-17T02:43:08.565Z,19.27
2022-08-17T02:45:40.090Z,19.27
2022-08-17T02:48:12.119Z,19.27
2022-08-17T02:50:43.620Z,19.20
2022-08-17T02:53:15.468Z,19.10
2022-08-17T02:55:47.008Z,19.08
2022-08-17T02:58:34.786Z,19.07
2022-08-17T03:01:07.723Z,19.00
2022-08-17T03:03:39.274Z,18.97
2022-08-17T03:06:11.161Z,18.96
2022-08-17T03:08:42.666Z,17.56
2022-08-17T03:11:14.513Z,18.95
2022-08-17T03:13:46.078Z,18.93
2022-08-17T03:16:18.068Z,18.90
2022-08-17T03:18:49.612Z,18.90
2022-08-17T03:21:21.512Z,18.88
2022-08-17T03:23:54.739Z,18.89
2022-08-17T03:26:29.801Z,18.88
2022-08-17T03:29:01.496Z,18.88
2022-08-17T03:31:33.286Z,18.87
2022-08-17T03:34:08.760Z,18.89
2022-08-17T03:36:40.586Z,18.88
2022-08-17T03:39:12.153Z,18.88
2022-08-17T03:41:44.159Z,18.88
2022-08-17T03:44:15.700Z,18.90
2022-08-17T03:47:06.815Z,18.92
2022-08-17T03:49:57.080Z,18.94
2022-08-17T03:52:47.516Z,18.95
2022-08-17T03:55:42.158Z,18.95
2022-08-17T03:58:13.928Z,18.96
2022-08-17T04:00:46.277Z,18.98
2022-08-17T04:03:18.110Z,19.00
2022-08-17T04:05:49.634Z,19.03
2022-08-17T04:08:21.522Z,19.08
2022-08-17T04:10:53.048Z,19.13
2022-08-17T04:13:25.726Z,19.19
2022-08-17T04:15:59.267Z,19.25
2022-08-17T04:18:31.259Z,19.28
2022-08-17T04:21:05.144Z,19.32
2022-08-17T04:23:38.202Z,19.39
2022-08-17T04:26:09.782Z,19.45
2022-08-17T04:29:01.552Z,19.51
2022-08-17T04:31:33.925Z,19.53
2022-08-17T04:34:05.857Z,19.57
2022-08-17T04:36:37.379Z,19.66
2022-08-17T04:39:09.270Z,19.75
2022-08-17T04:42:01.305Z,19.83
2022-08-17T04:44:37.779Z,19.90
2022-08-17T04:47:10.627Z,20.01
2022-08-17T04:49:45.319Z,20.13
2022-08-17T04:52:32.226Z,20.24
2022-08-17T04:55:08.645Z,20.41
2022-08-17T04:57:44.550Z,20.53
2022-08-17T05:00:16.695Z,20.65
2022-08-17T05:02:50.258Z,20.80
2022-08-17T05:05:22.287Z,20.91
2022-08-17T05:07:57.108Z,21.02
2022-08-17T05:10:28.625Z,21.15
2022-08-17T05:13:00.524Z,20.42
2022-08-17T05:15:36.376Z,21.44
2022-08-17T05:18:08.309Z,21.56
2022-08-17T05:20:39.846Z,21.71
2022-08-17T05:23:11.703Z,21.78
2022-08-17T05:25:43.307Z,21.87
2022-08-17T05:28:24.133Z,22.06
2022-08-17T05:30:58.112Z,22.17
2022-08-17T05:33:29.971Z,22.24
2022-08-17T05:36:01.493Z,22.44
2022-08-17T05:38:33.432Z,22.64
2022-08-17T05:41:04.975Z,22.81
2022-08-17T05:43:36.869Z,23.03
2022-08-17T05:46:08.381Z,23.23
2022-08-17T05:48:40.468Z,23.40
2022-08-17T05:51:12.040Z,23.55
2022-08-17T05:53:43.590Z,23.69
2022-08-17T05:56:29.638Z,23.80
2022-08-17T05:59:02.256Z,23.94
2022-08-17T06:01:33.811Z,24.02
2022-08-17T06:04:05.765Z,24.13
2022-08-17T06:06:38.141Z,24.17
2022-08-17T06:09:09.984Z,24.25
2022-08-17T06:11:41.489Z,24.43
2022-08-17T06:14:13.336Z,24.56
2022-08-17T06:16:44.858Z,24.45
2022-08-17T06:19:16.442Z,24.54
2022-08-17T06:21:47.983Z,24.70
2022-08-17T06:24:19.953Z,24.85
2022-08-17T06:26:51.471Z,24.92
2022-08-17T06:29:23.414Z,25.10
2022-08-17T06:31:54.976Z,25.11
2022-08-17T06:34:27.155Z,25.25
2022-08-17T06:36:59.150Z,25.42
2022-08-17T06:39:31.131Z,25.69
2022-08-17T06:42:02.701Z,25.85
2022-08-17T06:44:43.421Z,26.11
2022-08-17T06:47:28.479Z,26.33
2022-08-17T06:50:01.384Z,26.55
2022-08-17T06:52:45.777Z,26.75
2022-08-17T06:55:18.974Z,26.99
2022-08-17T06:57:51.367Z,27.18
2022-08-17T07:00:23.239Z,27.45
2022-08-17T07:02:55.876Z,27.57
2022-08-17T07:05:27.421Z,27.66
2022-08-17T07:08:02.292Z,27.93
2022-08-17T07:10:33.970Z,28.26
2022-08-17T07:13:05.850Z,28.51
2022-08-17T07:15:37.360Z,28.76
2022-08-17T07:18:09.352Z,28.74
2022-08-17T07:20:42.750Z,28.73
2022-08-17T07:23:14.754Z,28.80
2022-08-17T07:25:46.278Z,28.68
2022-08-17T07:28:18.711Z,28.59
2022-08-17T07:30:50.244Z,28.49
2022-08-17T07:33:22.943Z,28.94
2022-08-17T07:35:54.469Z,29.05
2022-08-17T07:38:28.580Z,29.03
2022-08-17T07:41:05.105Z,29.22
2022-08-17T07:43:36.679Z,29.64
2022-08-17T07:46:27.482Z,29.80
2022-08-17T07:48:59.291Z,29.94
2022-08-17T07:51:31.206Z,30.35
2022-08-17T07:54:13.955Z,30.40
2022-08-17T07:56:46.556Z,30.66
2022-08-17T07:59:18.345Z,30.80
2022-08-17T08:01:57.470Z,30.95
2022-08-17T08:07:21.304Z,31.07
2022-08-17T08:09:53.245Z,31.04
2022-08-17T08:12:24.766Z,31.06
2022-08-17T08:15:05.445Z,31.23
2022-08-17T08:17:37.023Z,31.52
2022-08-17T08:20:42.515Z,31.24
2022-08-17T08:23:00.776Z,31.04
2022-08-17T08:25:33.217Z,31.31
2022-08-17T08:28:05.608Z,31.57
2022-08-17T08:30:37.423Z,31.67
2022-08-17T08:33:08.976Z,31.49
2022-08-17T08:35:40.796Z,31.65
2022-08-17T08:38:12.335Z,31.99
2022-08-17T08:40:44.222Z,31.96
2022-08-17T08:43:15.724Z,32.36
2022-08-17T08:45:47.562Z,32.06
2022-08-17T08:48:46.114Z,32.38
2022-08-17T08:51:10.934Z,32.53
2022-08-17T08:53:42.787Z,32.53
2022-08-17T08:56:14.280Z,32.54
2022-08-17T08:58:47.688Z,32.63
2022-08-17T09:01:19.290Z,32.67
2022-08-17T09:03:53.065Z,32.88
2022-08-17T09:06:32.488Z,33.08
2022-08-17T09:09:11.779Z,33.23
2022-08-17T09:12:01.823Z,33.30
2022-08-17T09:14:46.625Z,33.45
2022-08-17T09:17:19.225Z,33.37
2022-08-17T09:19:51.186Z,33.89
2022-08-17T09:22:22.969Z,33.92
2022-08-17T09:24:57.117Z,33.86
2022-08-17T09:27:29.230Z,34.04
2022-08-17T09:30:00.804Z,34.34
2022-08-17T09:32:32.616Z,34.53
2022-08-17T09:35:04.180Z,34.47
2022-08-17T09:37:36.348Z,34.64
2022-08-17T09:40:09.666Z,34.74
2022-08-17T09:42:41.705Z,34.46
2022-08-17T09:45:13.545Z,35.20
2022-08-17T09:47:46.935Z,35.18
2022-08-17T09:50:20.253Z,35.39
2022-08-17T09:53:12.068Z,35.53
2022-08-17T09:55:43.551Z,36.13
2022-08-17T09:58:15.357Z,36.08
2022-08-17T10:00:46.926Z,36.00
2022-08-17T10:03:20.290Z,36.15
2022-08-17T10:05:56.888Z,35.96
2022-08-17T10:08:29.010Z,36.57
2022-08-17T10:11:00.525Z,36.59
2022-08-17T10:13:32.355Z,36.21
2022-08-17T10:16:07.748Z,36.01
2022-08-17T10:18:39.603Z,35.84
2022-08-17T10:21:30.142Z,35.73
2022-08-17T10:24:21.946Z,36.08
2022-08-17T10:26:57.232Z,36.62
2022-08-17T10:29:29.111Z,36.07
2022-08-17T10:32:04.177Z,36.48
2022-08-17T10:34:40.414Z,36.65
2022-08-17T10:37:13.658Z,36.80
2022-08-17T10:39:52.022Z,36.49
2022-08-17T10:42:30.144Z,35.11
2022-08-17T10:45:03.903Z,35.24
2022-08-17T10:47:54.705Z,34.59
2022-08-17T10:50:26.822Z,35.24
2022-08-17T10:52:58.938Z,35.64
2022-08-17T10:55:30.449Z,36.25
2022-08-17T10:58:02.026Z,36.30
2022-08-17T11:00:33.580Z,36.64
2022-08-17T11:03:05.368Z,36.86
2022-08-17T11:05:40.151Z,36.63
2022-08-17T11:08:15.366Z,36.75
2022-08-17T11:10:52.149Z,36.62
2022-08-17T11:13:24.554Z,35.55
2022-08-17T11:16:00.654Z,35.14
2022-08-17T11:18:33.954Z,35.31
2022-08-17T11:21:05.481Z,35.34
2022-08-17T11:23:37.518Z,35.66
2022-08-17T11:26:09.036Z,36.21
2022-08-17T11:28:40.557Z,36.75
2022-08-17T11:31:12.140Z,36.36
2022-08-17T11:33:45.162Z,35.92
2022-08-17T11:36:16.682Z,37.04
2022-08-17T11:38:48.223Z,37.14
2022-08-17T11:41:20.228Z,38.13
2022-08-17T11:43:52.113Z,38.56
2022-08-17T11:46:23.623Z,38.78
2022-08-17T11:49:14.221Z,38.33
2022-08-17T11:51:45.984Z,38.17
2022-08-17T11:54:32.696Z,36.54
2022-08-17T11:57:06.300Z,35.79
2022-08-17T11:59:39.973Z,35.83
2022-08-17T12:02:11.557Z,35.74
2022-08-17T12:04:47.179Z,35.27
2022-08-17T12:07:18.796Z,35.31
2022-08-17T12:09:50.304Z,35.58
2022-08-17T12:12:22.145Z,34.77
2022-08-17T12:15:10.964Z,35.34
2022-08-17T12:17:46.923Z,36.07
2022-08-17T12:20:21.428Z,36.05
2022-08-17T12:22:55.069Z,35.80
2022-08-17T12:25:26.601Z,36.32
2022-08-17T12:28:06.457Z,36.49
2022-08-17T12:30:38.670Z,36.69
2022-08-17T12:33:11.321Z,37.63
2022-08-17T12:35:43.359Z,36.59
2022-08-17T12:38:30.379Z,35.74
2022-08-17T12:41:24.368Z,35.49
2022-08-17T12:43:55.944Z,35.30
2022-08-17T12:46:27.430Z,34.97
2022-08-17T12:49:00.238Z,35.06
2022-08-17T12:51:31.900Z,35.40
2022-08-17T12:54:03.714Z,35.11
2022-08-17T12:56:35.216Z,35.38
2022-08-17T12:59:07.435Z,36.41
2022-08-17T13:01:40.160Z,37.03
2022-08-17T13:04:12.118Z,37.07
2022-08-17T13:06:43.641Z,36.34
2022-08-17T13:09:15.193Z,36.52
2022-08-17T13:11:47.018Z,36.40
2022-08-17T13:14:18.681Z,36.58
2022-08-17T13:16:50.242Z,37.45
2022-08-17T13:19:40.059Z,37.58
2022-08-17T13:22:13.011Z,37.23
2022-08-17T13:24:44.525Z,36.89
2022-08-17T13:27:18.031Z,36.70
2022-08-17T13:29:51.445Z,36.30
2022-08-17T13:32:26.838Z,35.73
2022-08-17T13:35:12.154Z,35.56
2022-08-17T13:37:47.404Z,36.07
2022-08-17T13:40:19.035Z,36.96
2022-08-17T13:42:53.081Z,36.77
2022-08-17T13:45:35.695Z,36.41
2022-08-17T13:48:08.836Z,36.11
2022-08-17T13:50:44.061Z,35.68
2022-08-17T13:53:15.876Z,35.52
2022-08-17T13:55:47.489Z,35.85
2022-08-17T13:58:19.351Z,35.96
2022-08-17T14:00:51.747Z,35.57
2022-08-17T14:03:23.645Z,35.36
2022-08-17T14:05:55.165Z,36.02
2022-08-17T14:08:31.360Z,35.70
2022-08-17T14:11:02.944Z,35.84
2022-08-17T14:13:35.517Z,35.86
2022-08-17T14:16:07.028Z,35.69
2022-08-17T14:18:55.691Z,35.49
2022-08-17T14:21:29.117Z,35.78
2022-08-17T14:24:00.620Z,35.91
2022-08-17T14:26:33.454Z,36.35
2022-08-17T14:29:05.206Z,36.71
2022-08-17T14:31:52.174Z,37.69
2022-08-17T14:34:25.923Z,37.33
2022-08-17T14:36:57.925Z,36.84
2022-08-17T14:39:29.527Z,37.49
2022-08-17T14:42:01.329Z,37.09
2022-08-17T14:44:32.859Z,38.05
2022-08-17T14:47:04.688Z,38.12
2022-08-17T14:49:36.179Z,38.24
2022-08-17T14:52:07.994Z,38.55
2022-08-17T14:54:45.178Z,38.63
2022-08-17T14:57:23.361Z,38.50
2022-08-17T15:00:05.489Z,39.25
2022-08-17T15:02:37.437Z,39.23
2022-08-17T15:05:08.957Z,38.59
2022-08-17T15:07:40.900Z,36.92
2022-08-17T15:10:12.423Z,36.26
2022-08-17T15:12:44.244Z,36.28
2022-08-17T15:15:15.781Z,36.26
2022-08-17T15:17:47.383Z,36.87
2022-08-17T15:20:18.937Z,36.87
2022-08-17T15:22:50.844Z,37.63
2022-08-17T15:25:22.418Z,37.32
2022-08-17T15:27:56.178Z,36.50
2022-08-17T15:30:28.100Z,36.20
2022-08-17T15:32:59.677Z,35.97
2022-08-17T15:35:32.535Z,36.11
2022-08-17T15:38:10.618Z,36.74
2022-08-17T15:40:43.360Z,36.88
2022-08-17T15:43:14.933Z,37.10
2022-08-17T15:45:52.907Z,36.20
2022-08-17T15:48:41.914Z,35.71
2022-08-17T15:51:14.145Z,35.30
2022-08-17T15:53:45.709Z,34.87
2022-08-17T15:56:17.688Z,34.73
2022-08-17T15:58:49.242Z,34.43
2022-08-17T16:02:22.382Z,34.07
2022-08-17T16:04:29.737Z,33.90
2022-08-17T16:07:02.450Z,33.60
2022-08-17T16:09:34.027Z,33.77
2022-08-17T16:12:05.841Z,33.85
2022-08-17T16:14:37.400Z,33.84
2022-08-17T16:17:29.649Z,33.95
2022-08-17T16:20:01.647Z,34.11
2022-08-17T16:22:33.835Z,34.18
2022-08-17T16:25:05.358Z,33.90
2022-08-17T16:27:37.156Z,33.83
2022-08-17T16:30:11.402Z,33.95
2022-08-17T16:32:45.482Z,33.94
2022-08-17T16:35:17.387Z,33.67
2022-08-17T16:37:48.917Z,33.63
2022-08-17T16:40:21.237Z,33.59
2022-08-17T16:42:52.871Z,33.44
2022-08-17T16:45:24.783Z,33.32
2022-08-17T16:47:59.071Z,33.35
2022-08-17T16:50:32.247Z,33.52
2022-08-17T16:53:03.763Z,33.51
2022-08-17T16:55:35.996Z,33.47
2022-08-17T16:58:08.792Z,33.39
2022-08-17T17:00:42.420Z,33.47
2022-08-17T17:03:19.768Z,33.48
2022-08-17T17:05:57.864Z,33.41
2022-08-17T17:08:30.332Z,33.18
2022-08-17T17:11:03.578Z,32.92
2022-08-17T17:13:40.474Z,32.92
2022-08-17T17:16:12.382Z,32.77
2022-08-17T17:18:43.929Z,32.56
2022-08-17T17:21:15.893Z,32.51
2022-08-17T17:23:47.413Z,32.45
2022-08-17T17:26:19.494Z,32.43
2022-08-17T17:28:51.000Z,32.32
2022-08-17T17:31:25.556Z,32.19
2022-08-17T17:33:57.049Z,31.96
2022-08-17T17:36:28.927Z,31.85
2022-08-17T17:39:00.483Z,31.62
2022-08-17T17:41:32.429Z,31.56
2022-08-17T17:44:03.971Z,31.39
2022-08-17T17:46:37.756Z,31.29
2022-08-17T17:49:11.087Z,31.13
2022-08-17T17:52:07.744Z,31.04
2022-08-17T17:54:34.447Z,30.96
2022-08-17T17:57:06.186Z,30.87
2022-08-17T17:59:41.904Z,30.83
2022-08-17T18:02:35.807Z,30.72
2022-08-17T18:05:07.590Z,30.60
2022-08-17T18:07:39.397Z,30.45
2022-08-17T18:10:29.287Z,30.34
2022-08-17T18:13:01.640Z,30.21
2022-08-17T18:15:33.952Z,30.10
2022-08-17T18:18:05.816Z,30.06
2022-08-17T18:20:46.483Z,29.92
2022-08-17T18:23:28.606Z,29.82
2022-08-17T18:26:02.279Z,29.73
2022-08-17T18:28:33.877Z,29.60
2022-08-17T18:31:05.443Z,29.53
2022-08-17T18:33:37.033Z,29.42
2022-08-17T18:36:09.053Z,29.38
2022-08-17T18:38:40.703Z,29.31
2022-08-17T18:41:12.597Z,29.24
2022-08-17T18:43:53.757Z,29.13
2022-08-17T18:46:28.123Z,29.04
2022-08-17T18:49:00.701Z,29.00
2022-08-17T18:51:40.695Z,28.90
2022-08-17T18:54:14.301Z,28.84
2022-08-17T18:56:59.350Z,28.79
2022-08-17T18:59:30.950Z,28.76
2022-08-17T19:02:10.212Z,28.69
2022-08-17T19:04:45.391Z,28.66
2022-08-17T19:07:17.243Z,28.62
2022-08-17T19:09:48.774Z,28.55
2022-08-17T19:12:24.898Z,28.48
2022-08-17T19:14:58.442Z,28.43
2022-08-17T19:17:30.399Z,28.39
2022-08-17T19:20:01.945Z,28.35
2022-08-17T19:22:34.024Z,28.30
2022-08-17T19:25:05.542Z,28.31
2022-08-17T19:27:41.895Z,28.24
2022-08-17T19:30:17.844Z,28.19
2022-08-17T19:32:50.793Z,28.12
2022-08-17T19:35:23.502Z,28.07
2022-08-17T19:37:55.022Z,28.05
2022-08-17T19:40:51.034Z,27.99
2022-08-17T19:43:19.138Z,27.93
2022-08-17T19:45:51.092Z,27.88
2022-08-17T19:48:22.628Z,27.85
2022-08-17T19:50:54.535Z,27.81
2022-08-17T19:53:41.624Z,27.77
2022-08-17T19:56:19.035Z,27.70
2022-08-17T19:58:51.535Z,27.68
2022-08-17T20:01:23.741Z,27.65
2022-08-17T20:03:55.352Z,27.60
2022-08-17T20:06:27.433Z,27.51
2022-08-17T20:08:59.003Z,27.45
2022-08-17T20:11:31.127Z,27.42
2022-08-17T20:14:02.668Z,27.35
2022-08-17T20:16:34.588Z,27.32
2022-08-17T20:19:06.142Z,27.28
2022-08-17T20:21:37.990Z,27.23
2022-08-17T20:24:09.545Z,27.19
2022-08-17T20:26:41.126Z,27.16
2022-08-17T20:29:39.815Z,27.15
2022-08-17T20:32:12.692Z,27.12
2022-08-17T20:34:44.226Z,27.08
2022-08-17T20:37:16.110Z,27.04
2022-08-17T20:39:47.636Z,26.97
2022-08-17T20:42:19.440Z,26.95
2022-08-17T20:44:50.956Z,26.90
2022-08-17T20:47:27.217Z,26.87
2022-08-17T20:49:58.968Z,26.82
2022-08-17T20:52:30.856Z,26.79
2022-08-17T20:55:02.981Z,26.76
2022-08-17T20:57:34.922Z,26.74
2022-08-17T21:00:14.742Z,26.71
2022-08-17T21:02:46.310Z,26.66
2022-08-17T21:05:18.164Z,26.61
2022-08-17T21:07:50.472Z,26.60
2022-08-17T21:10:22.187Z,26.60
2022-08-17T21:12:53.711Z,26.58
2022-08-17T21:15:28.840Z,26.54
2022-08-17T21:18:00.728Z,26.50
2022-08-17T21:20:32.842Z,26.47
2022-08-17T21:23:05.176Z,26.43
2022-08-17T21:25:37.455Z,26.39
2022-08-17T21:28:09.239Z,26.36
2022-08-17T21:30:44.717Z,26.37
2022-08-17T21:33:16.310Z,26.32
2022-08-17T21:35:48.770Z,26.27
2022-08-17T21:38:20.359Z,26.30
2022-08-17T21:40:53.017Z,26.30
2022-08-17T21:43:24.533Z,26.25
2022-08-17T21:45:56.400Z,26.24
2022-08-17T21:48:28.396Z,26.20
2022-08-17T21:51:00.831Z,26.20
2022-08-17T21:53:33.366Z,26.13
2022-08-17T21:56:05.037Z,26.10
2022-08-17T21:58:39.424Z,26.05
2022-08-17T22:01:11.057Z,26.00
2022-08-17T22:03:43.125Z,25.99
2022-08-17T22:06:14.656Z,25.98
2022-08-17T22:08:46.686Z,25.93
2022-08-17T22:11:18.531Z,25.02
2022-08-17T22:13:50.494Z,25.84
2022-08-17T22:16:29.853Z,25.81
2022-08-17T22:19:01.882Z,25.80
2022-08-17T22:21:33.420Z,25.72
2022-08-17T22:24:05.299Z,25.63
2022-08-17T22:26:36.848Z,25.59
2022-08-17T22:29:08.980Z,25.55
2022-08-17T22:31:40.508Z,25.52
2022-08-17T22:34:12.456Z,25.46
2022-08-17T22:36:43.975Z,25.45
2022-08-17T22:39:15.816Z,25.39
2022-08-17T22:41:48.112Z,25.31
2022-08-17T22:44:20.060Z,25.27
2022-08-17T22:46:51.664Z,25.24
2022-08-17T22:49:23.610Z,25.17
2022-08-17T22:51:55.152Z,25.15
2022-08-17T22:54:45.881Z,25.11
2022-08-17T22:57:35.892Z,25.06
2022-08-17T23:00:07.786Z,25.02
2022-08-17T23:02:51.190Z,25.03
2022-08-17T23:05:27.484Z,25.00
2022-08-17T23:07:59.006Z,24.96
2022-08-17T23:10:30.923Z,24.98
2022-08-17T23:13:02.453Z,25.00
2022-08-17T23:15:34.473Z,24.95
2022-08-17T23:18:06.016Z,24.93
2022-08-17T23:20:37.915Z,24.93
2022-08-17T23:23:09.450Z,24.91
2022-08-17T23:25:41.319Z,24.90
2022-08-17T23:28:12.978Z,24.86
2022-08-17T23:30:44.921Z,24.88
2022-08-17T23:33:16.433Z,24.84
2022-08-17T23:35:48.316Z,24.84
2022-08-17T23:38:19.864Z,24.83
2022-08-17T23:40:51.735Z,24.86
2022-08-17T23:43:24.781Z,24.85
2022-08-17T23:45:58.402Z,24.81
2022-08-17T23:48:35.897Z,24.84
2022-08-17T23:51:09.144Z,24.77
2022-08-17T23:53:42.323Z,24.74
2022-08-17T23:56:13.860Z,24.72
2022-08-17T23:58:45.847Z,24.69
